Time;durP1;ratioP1;P1;durP2;ratioP2;P2;SDS_P1;SDS_P2;PMS_P1;PMS_P2;Temp;Humidity;BMP_temperature;BMP_pressure;BME280_temperature;BME280_humidity;BME280_pressure;Samples;Min_cycle;Max_cycle;Signal;HPM_P1;HPM_P2
2023/06/03 00:00:37;;;;;;;;;;;;;;;20.39;58.83;99796.75;4474201;31;33260;-80
2023/06/03 00:03:04;;;;;;;;;;;;;;;21.53;55.30;99804.13;4490204;31;34913;-81
2023/06/03 00:05:32;;;;;;;;;;;;;;;21.96;53.80;99801.44;4490670;31;32159;-81
2023/06/03 00:07:59;;;;;;;;;;;;;;;22.05;53.59;99806.72;4470553;32;33765;-81
2023/06/03 00:10:27;;;;;;;;;;;;;;;22.12;53.23;99813.75;4485845;31;33455;-82
2023/06/03 00:12:54;;;;;;;;;;;;;;;23.96;47.88;99813.66;4485533;31;34731;-81
2023/06/03 00:15:21;;;;;;;;;;;;;;;24.48;46.24;99814.84;4471722;32;34395;-80
2023/06/03 00:17:49;;;;;;;;;;;;;;;24.01;47.38;99817.13;4470015;32;34200;-81
2023/06/03 00:20:16;;;;;;;;;;;;;;;21.60;53.51;99822.56;4490713;31;32799;-80
2023/06/03 00:22:45;;;;;;;;;;;;;;;20.88;55.08;99825.06;4456553;31;33529;-81
2023/06/03 00:25:12;;;;;;;;;;;;;;;20.48;56.62;99830.12;4471030;31;34799;-81
2023/06/03 00:27:40;;;;;;;;;;;;;;;20.69;56.04;99828.50;4474130;31;33864;-81
2023/06/03 00:30:07;;;;;;;;;;;;;;;22.75;50.15;99828.50;4459244;31;32806;-80
2023/06/03 00:32:36;;;;;;;;;;;;;;;23.05;48.24;99827.53;4475114;31;33765;-82
2023/06/03 00:35:03;;;;;;;;;;;;;;;23.06;48.04;99831.03;4488010;31;33973;-81
2023/06/03 00:37:31;;;;;;;;;;;;;;;20.31;56.02;99827.41;4488928;31;35346;-80
2023/06/03 00:39:58;;;;;;;;;;;;;;;19.68;58.21;99844.44;4488968;31;33488;-79
2023/06/03 00:42:26;;;;;;;;;;;;;;;20.45;55.60;99835.38;4469022;31;34598;-80
2023/06/03 00:44:53;;;;;;;;;;;;;;;21.22;53.76;99835.69;4467395;31;33898;-81
2023/06/03 00:47:20;;;;;;;;;;;;;;;22.51;49.35;99830.38;4471409;31;33629;-80
2023/06/03 00:49:48;;;;;;;;;;;;;;;20.59;55.14;99839.00;4474129;31;33923;-81
2023/06/03 00:52:15;;;;;;;;;;;;;;;20.39;56.22;99844.09;4490048;31;33925;-80
2023/06/03 00:54:43;;;;;;;;;;;;;;;21.50;52.76;99841.00;4484143;31;32356;-80
2023/06/03 00:57:10;;;;;;;;;;;;;;;22.37;50.59;99835.72;4472608;31;35589;-81
2023/06/03 00:59:38;;;;;;;;;;;;;;;20.96;55.06;99836.50;4471962;31;33193;-80
2023/06/03 01:02:06;;;;;;;;;;;;;;;20.12;56.69;99844.81;4487645;31;33761;-80
2023/06/03 01:04:33;;;;;;;;;;;;;;;19.58;58.87;99846.13;4462938;31;33587;-81
2023/06/03 01:07:07;;;;;;;;;;;;;;;18.81;61.88;99843.59;4485811;31;32171;-81
2023/06/03 01:09:46;;;;;;;;;;;;;;;17.75;66.29;99851.59;4472580;31;32901;-80
2023/06/03 01:12:29;;;;;;;;;;;;;;;17.47;68.77;99849.37;4486056;31;34163;-80
2023/06/03 01:14:57;;;;;;;;;;;;;;;17.65;67.74;99847.94;4485670;31;34521;-81
2023/06/03 01:17:27;;;;;;;;;;;;;;;17.00;70.79;99844.16;4485928;31;34953;-80
2023/06/03 01:19:56;;;;;;;;;;;;;;;17.54;68.82;99844.25;4485810;31;32271;-81
2023/06/03 01:22:28;;;;;;;;;;;;;;;19.08;63.22;99854.38;4458726;31;34055;-81
2023/06/03 01:25:03;;;;;;;;;;;;;;;20.18;58.80;99844.84;4470554;31;33178;-81
2023/06/03 01:27:30;;;;;;;;;;;;;;;22.13;52.66;99844.50;4486091;31;34384;-81
2023/06/03 01:29:58;;;;;;;;;;;;;;;22.43;51.58;99842.72;4458944;31;34060;-81
2023/06/03 01:32:25;;;;;;;;;;;;;;;21.83;52.80;99840.16;4487813;31;33961;-80
2023/06/03 01:34:53;;;;;;;;;;;;;;;19.88;58.83;99852.56;4488779;31;33992;-80
2023/06/03 01:37:21;;;;;;;;;;;;;;;18.60;64.06;99852.03;4473090;31;35337;-80
2023/06/03 01:39:48;;;;;;;;;;;;;;;18.23;65.21;99854.16;4488041;31;33323;-81
2023/06/03 01:42:16;;;;;;;;;;;;;;;17.29;68.96;99860.41;4474784;31;34648;-81
2023/06/03 01:44:44;;;;;;;;;;;;;;;17.09;69.79;99860.06;4473837;31;32427;-81
2023/06/03 01:47:11;;;;;;;;;;;;;;;16.55;72.54;99858.03;4473652;31;32347;-80
2023/06/03 01:49:40;;;;;;;;;;;;;;;16.47;72.49;99862.22;4473459;31;32763;-79
2023/06/03 01:52:07;;;;;;;;;;;;;;;16.27;73.86;99862.66;4474156;31;34147;-80
2023/06/03 01:54:34;;;;;;;;;;;;;;;16.14;74.23;99865.81;4487582;31;33759;-80
2023/06/03 01:57:03;;;;;;;;;;;;;;;15.86;75.61;99875.62;4487611;31;33849;-80
2023/06/03 01:59:30;;;;;;;;;;;;;;;16.20;74.62;99860.72;4487359;31;33307;-80
2023/06/03 02:01:58;;;;;;;;;;;;;;;16.67;72.78;99867.88;4487923;31;34978;-80
2023/06/03 02:04:26;;;;;;;;;;;;;;;17.30;70.59;99872.63;4473372;31;33893;-81
2023/06/03 02:06:55;;;;;;;;;;;;;;;17.67;69.16;99877.66;4487193;31;33950;-81
2023/06/03 02:09:27;;;;;;;;;;;;;;;17.93;67.42;99887.75;4461616;31;31491;-81
2023/06/03 02:11:55;;;;;;;;;;;;;;;18.88;63.69;99883.91;4488186;31;33985;-81
2023/06/03 02:14:23;;;;;;;;;;;;;;;20.22;58.92;99883.47;4487498;31;34691;-80
2023/06/03 02:16:50;;;;;;;;;;;;;;;22.01;52.45;99883.22;4473218;31;34796;-81
2023/06/03 02:19:21;;;;;;;;;;;;;;;22.19;51.56;99881.47;4487786;31;34106;-80
2023/06/03 02:21:48;;;;;;;;;;;;;;;21.27;53.61;99886.63;4459906;31;33564;-80
2023/06/03 02:24:16;;;;;;;;;;;;;;;22.32;50.71;99882.31;4474104;31;31894;-80
2023/06/03 02:26:50;;;;;;;;;;;;;;;22.27;50.50;99884.13;4473943;31;34336;-80
2023/06/03 02:29:22;;;;;;;;;;;;;;;22.17;50.18;99883.22;4486748;31;33678;-81
2023/06/03 02:31:50;;;;;;;;;;;;;;;21.10;53.24;99888.34;4484301;31;32579;-81
2023/06/03 02:34:18;;;;;;;;;;;;;;;20.55;54.89;99895.09;4487430;31;34136;-81
2023/06/03 02:36:46;;;;;;;;;;;;;;;20.78;54.64;99889.06;4472872;31;33239;-81
2023/06/03 02:39:14;;;;;;;;;;;;;;;21.40;52.57;99891.06;4487312;31;33219;-79
2023/06/03 02:41:41;;;;;;;;;;;;;;;21.87;50.93;99893.78;4474507;31;33627;-80
2023/06/03 02:44:11;;;;;;;;;;;;;;;21.79;51.00;99902.56;4473775;31;33863;-80
2023/06/03 02:46:39;;;;;;;;;;;;;;;22.50;49.13;99894.63;4474124;31;34911;-80
2023/06/03 02:49:07;;;;;;;;;;;;;;;21.92;50.79;99897.28;4473544;31;33159;-81
2023/06/03 02:51:36;;;;;;;;;;;;;;;22.70;48.18;99901.63;4454323;31;33877;-81
2023/06/03 02:54:04;;;;;;;;;;;;;;;22.62;48.30;99900.72;4484614;31;34808;-80
2023/06/03 02:56:31;;;;;;;;;;;;;;;22.04;49.49;99909.59;4473199;31;33156;-81
2023/06/03 02:58:58;;;;;;;;;;;;;;;21.66;50.85;99911.31;4471965;31;33549;-81
2023/06/03 03:01:26;;;;;;;;;;;;;;;21.19;51.73;99914.72;4490105;31;33693;-80
2023/06/03 03:03:54;;;;;;;;;;;;;;;21.12;52.11;99923.47;4473034;31;34758;-81
2023/06/03 03:06:21;;;;;;;;;;;;;;;21.94;50.28;99916.63;4473260;31;33505;-80
2023/06/03 03:08:50;;;;;;;;;;;;;;;21.58;51.00;99923.63;4473025;31;31669;-81
2023/06/03 03:11:17;;;;;;;;;;;;;;;22.26;49.14;99926.34;4472925;31;33737;-81
2023/06/03 03:13:46;;;;;;;;;;;;;;;21.36;51.23;99936.72;4486716;31;34009;-81
2023/06/03 03:16:15;;;;;;;;;;;;;;;20.94;53.18;99930.41;4472840;31;33521;-80
2023/06/03 03:18:44;;;;;;;;;;;;;;;21.34;51.97;99943.75;4487258;31;33233;-80
2023/06/03 03:21:12;;;;;;;;;;;;;;;21.32;52.42;99941.97;4473686;31;34120;-80
2023/06/03 03:23:39;;;;;;;;;;;;;;;20.67;54.20;99941.69;4486072;31;34200;-81
2023/06/03 03:26:11;;;;;;;;;;;;;;;20.12;55.83;99951.75;4477568;31;33445;-80
2023/06/03 03:28:39;;;;;;;;;;;;;;;21.50;51.77;99944.69;4475355;31;32787;-81
2023/06/03 03:31:09;;;;;;;;;;;;;;;21.44;51.65;99952.59;4472656;31;32540;-80
2023/06/03 03:33:36;;;;;;;;;;;;;;;21.30;52.44;99947.22;4466136;31;34018;-81
2023/06/03 03:39:04;;;;;;;;;;;;;;;20.15;55.99;99967.59;4477468;31;31484;-80
2023/06/03 03:41:33;;;;;;;;;;;;;;;20.28;55.83;99973.81;4487408;31;33771;-81
2023/06/03 03:44:00;;;;;;;;;;;;;;;21.83;51.08;99976.38;4472753;31;34060;-80
2023/06/03 03:46:27;;;;;;;;;;;;;;;23.08;47.40;99970.19;4486576;31;33854;-80
2023/06/03 03:48:56;;;;;;;;;;;;;;;23.39;45.73;99974.44;4486325;31;33585;-81
2023/06/03 03:51:23;;;;;;;;;;;;;;;19.72;55.62;99994.34;4487565;31;32579;-81
2023/06/03 03:53:51;;;;;;;;;;;;;;;19.94;55.12;99994.56;4458646;31;31931;-81
2023/06/03 03:56:20;;;;;;;;;;;;;;;20.09;54.94;99993.78;4472760;31;34866;-81
2023/06/03 03:58:49;;;;;;;;;;;;;;;19.11;58.93;99993.56;4460047;31;33468;-80
2023/06/03 04:01:18;;;;;;;;;;;;;;;19.23;58.96;99988.47;4473951;31;33103;-81
2023/06/03 04:03:47;;;;;;;;;;;;;;;19.56;58.18;99993.22;4466205;31;33204;-81
2023/06/03 04:06:32;;;;;;;;;;;;;;;21.66;52.12;99989.53;4472040;31;34769;-81
2023/06/03 04:09:01;;;;;;;;;;;;;;;22.40;49.98;100001.06;4464969;31;33149;-81
2023/06/03 04:11:29;;;;;;;;;;;;;;;19.87;56.82;99997.97;4472762;31;34212;-80
2023/06/03 04:13:58;;;;;;;;;;;;;;;18.24;61.62;100002.72;4472466;31;34301;-81
2023/06/03 04:16:45;;;;;;;;;;;;;;;18.76;60.20;100007.06;4466128;31;34028;-81
2023/06/03 04:19:17;;;;;;;;;;;;;;;18.59;60.47;100006.78;4485803;31;33099;-80
2023/06/03 04:21:45;;;;;;;;;;;;;;;18.37;61.54;100010.78;4472762;31;34471;-81
2023/06/03 04:24:12;;;;;;;;;;;;;;;17.80;63.37;100010.66;4464390;31;34843;-80
2023/06/03 04:26:41;;;;;;;;;;;;;;;17.60;63.38;100014.63;4486706;31;33776;-81
2023/06/03 04:29:09;;;;;;;;;;;;;;;17.42;63.17;100012.50;4471887;31;31441;-79
2023/06/03 04:31:36;;;;;;;;;;;;;;;17.69;63.04;100010.47;4463974;31;33276;-80
2023/06/03 04:34:04;;;;;;;;;;;;;;;17.77;63.25;100013.22;4486892;31;33125;-81
2023/06/03 04:36:32;;;;;;;;;;;;;;;18.70;59.25;100012.19;4471173;31;33446;-80
2023/06/03 04:38:59;;;;;;;;;;;;;;;19.39;56.88;100008.81;4485627;31;33844;-82
2023/06/03 04:41:27;;;;;;;;;;;;;;;18.55;59.16;100008.47;4471611;31;32957;-80
2023/06/03 04:43:55;;;;;;;;;;;;;;;18.72;58.81;100015.75;4485866;31;35849;-81
2023/06/03 04:46:29;;;;;;;;;;;;;;;19.00;57.60;100012.66;4486578;31;34179;-80
2023/06/03 04:48:58;;;;;;;;;;;;;;;19.37;57.02;100026.31;4486854;31;31368;-81
2023/06/03 04:51:29;;;;;;;;;;;;;;;20.83;52.90;100026.87;4472591;31;32347;-81
2023/06/03 04:53:56;;;;;;;;;;;;;;;21.94;49.87;100016.84;4485822;31;34118;-80
2023/06/03 04:56:24;;;;;;;;;;;;;;;21.98;49.92;100016.87;4488673;31;34337;-81
2023/06/03 04:58:55;;;;;;;;;;;;;;;22.09;48.02;100022.12;4477685;31;31756;-81
2023/06/03 05:01:23;;;;;;;;;;;;;;;22.16;46.77;100028.31;4489340;31;34992;-81
2023/06/03 05:03:51;;;;;;;;;;;;;;;22.51;45.74;100025.72;4492153;31;34965;-82
2023/06/03 05:06:19;;;;;;;;;;;;;;;22.92;45.44;100022.12;4488611;31;34142;-81
2023/06/03 05:08:47;;;;;;;;;;;;;;;22.82;46.19;100017.75;4473303;31;33233;-81
2023/06/03 05:11:15;;;;;;;;;;;;;;;21.23;47.54;100027.13;4495433;31;35194;-80
2023/06/03 05:13:43;;;;;;;;;;;;;;;22.17;45.96;100035.34;4487028;31;34538;-81
2023/06/03 05:16:12;;;;;;;;;;;;;;;21.85;46.80;100027.37;4494807;31;34017;-80
2023/06/03 05:18:40;;;;;;;;;;;;;;;22.44;45.21;100029.22;4471533;31;32578;-81
2023/06/03 05:21:07;;;;;;;;;;;;;;;20.91;46.99;100030.44;4479763;31;34937;-80
2023/06/03 05:23:35;;;;;;;;;;;;;;;19.45;50.80;100029.91;4493690;31;34218;-80
2023/06/03 05:26:04;;;;;;;;;;;;;;;19.37;51.76;100039.44;4490036;31;34187;-80
2023/06/03 05:28:31;;;;;;;;;;;;;;;19.30;52.74;100037.59;4488637;31;33065;-80
2023/06/03 05:30:59;;;;;;;11.82;4.40;;;;;;;19.77;51.87;100039.94;4491806;31;34165;-81
2023/06/03 05:33:28;;;;;;;;;;;;;;;21.49;46.98;100035.16;4491883;31;34523;-81
2023/06/03 05:35:57;;;;;;;;;;;;;;;20.26;50.41;100041.31;4492206;31;34701;-81
2023/06/03 05:38:24;;;;;;;;;;;;;;;19.66;51.07;100036.25;4489406;31;32834;-80
2023/06/03 05:40:52;;;;;;;;;;;;;;;19.33;53.21;100045.50;4488726;31;34727;-80
2023/06/03 05:43:20;;;;;;;;;;;;;;;19.14;53.10;100046.09;4488672;31;34029;-81
2023/06/03 05:45:48;;;;;;;;;;;;;;;20.13;50.47;100045.59;4476020;31;32347;-81
2023/06/03 05:48:16;;;;;;;;;;;;;;;19.33;53.33;100048.13;4490762;31;34026;-81
2023/06/03 05:50:47;;;;;;;;;;;;;;;19.88;52.82;100052.34;4482043;31;34821;-80
2023/06/03 05:53:17;;;;;;;;;;;;;;;19.60;52.18;100049.34;4491246;31;34187;-81
2023/06/03 05:55:45;;;;;;;;;;;;;;;20.53;48.43;100056.44;4471268;32;34023;-80
2023/06/03 05:58:12;;;;;;;;;;;;;;;19.77;49.85;100049.56;4490869;31;33693;-81
2023/06/03 06:00:39;;;;;;;8.20;4.00;;;;;;;21.24;47.11;100057.84;4491229;31;34804;-81
2023/06/03 06:03:07;;;;;;;10.20;4.25;;;;;;;23.25;42.35;100045.88;4494071;31;33801;-81
2023/06/03 06:05:36;;;;;;;8.18;3.85;;;;;;;24.03;40.71;100048.19;4488168;31;34123;-80
2023/06/03 06:08:03;;;;;;;10.32;4.72;;;;;;;23.53;41.96;100044.03;4487808;31;33028;-81
2023/06/03 06:10:32;;;;;;;12.57;5.25;;;;;;;21.38;46.85;100053.56;4488212;31;34044;-79
2023/06/03 06:12:59;;;;;;;12.23;5.10;;;;;;;20.55;49.48;100057.34;4472091;31;33655;-81
2023/06/03 06:15:29;;;;;;;10.17;5.20;;;;;;;19.58;51.12;100064.19;4487857;31;33318;-81
2023/06/03 06:17:59;;;;;;;8.97;5.07;;;;;;;20.54;48.19;100061.72;4488364;31;32903;-81
2023/06/03 06:20:27;;;;;;;10.10;5.37;;;;;;;21.46;46.50;100063.25;4473518;31;33723;-80
2023/06/03 06:22:54;;;;;;;12.75;5.60;;;;;;;19.86;49.60;100059.28;4493566;31;33665;-80
2023/06/03 06:25:22;;;;;;;9.60;5.20;;;;;;;20.09;50.35;100067.44;4478403;32;34356;-80
2023/06/03 06:27:50;;;;;;;10.02;5.25;;;;;;;19.25;51.67;100068.16;4489258;31;33011;-84
2023/06/03 06:30:45;;;;;;;11.68;5.45;;;;;;;20.26;49.49;100064.97;4469799;31;34211;-83
2023/06/03 06:33:16;;;;;;;13.55;5.22;;;;;;;19.90;51.08;100071.63;4487953;31;33196;-84
2023/06/03 06:35:46;;;;;;;8.45;4.60;;;;;;;21.89;45.97;100071.34;4488298;31;34723;-78
2023/06/03 06:38:14;;;;;;;11.52;4.57;;;;;;;24.41;39.58;100072.62;4484532;31;33706;-82
2023/06/03 06:40:45;;;;;;;10.60;4.55;;;;;;;24.16;40.21;100079.88;4492483;31;34066;-80
2023/06/03 06:43:14;;;;;;;8.23;4.20;;;;;;;25.80;36.71;100077.44;4486813;31;33941;-82
2023/06/03 06:45:43;;;;;;;9.20;4.12;;;;;;;23.05;41.53;100075.00;4470845;31;32777;-81
2023/06/03 06:48:12;;;;;;;7.87;4.40;;;;;;;24.31;40.52;100085.06;4490486;31;33014;-82
2023/06/03 06:50:53;;;;;;;9.63;4.07;;;;;;;25.84;37.00;100074.72;4484626;31;34443;-82
2023/06/03 06:53:27;;;;;;;8.93;4.75;;;;;;;25.14;38.37;100081.72;4476475;31;33850;-83
2023/06/03 06:55:56;;;;;;;;;;;;;;;25.99;35.93;100079.00;4496680;31;33973;-82
2023/06/03 06:58:25;;;;;;;;;;;;;;;26.08;36.29;100075.34;4461102;32;34188;-82
2023/06/03 07:00:54;;;;;;;;;;;;;;;25.55;37.68;100077.75;4471452;31;34993;-83
2023/06/03 07:03:23;;;;;;;;;;;;;;;26.73;34.82;100075.22;4450547;31;34925;-85
2023/06/03 07:05:57;;;;;;;;;;;;;;;25.87;37.07;100087.09;4472476;32;33516;-83
2023/06/03 07:08:25;;;;;;;;;;;;;;;26.83;35.48;100087.47;4476858;31;33355;-84
2023/06/03 07:10:59;;;;;;;;;;;;;;;28.04;32.62;100076.22;4476573;31;35260;-82
2023/06/03 07:13:52;;;;;;;;;;;;;;;27.73;33.77;100085.75;4485191;31;34002;-85
2023/06/03 07:16:24;;;;;;;;;;;;;;;26.39;35.53;100085.50;4460212;31;33930;-82
2023/06/03 07:18:53;;;;;;;;;;;;;;;27.12;35.12;100088.72;4495406;31;33727;-83
2023/06/03 07:21:25;;;;;;;;;;;;;;;28.39;32.73;100090.50;4464628;32;33893;-83
2023/06/03 07:23:53;;;;;;;8.38;4.22;;;;;;;27.88;33.33;100085.47;4481698;32;34500;-82
2023/06/03 07:26:25;;;;;;;8.68;4.43;;;;;;;28.92;31.12;100097.25;4460340;31;32494;-83
2023/06/03 07:28:57;;;;;;;8.50;3.62;;;;;;;29.02;31.48;100090.75;4472778;31;33535;-86
2023/06/03 07:31:25;;;;;;;;;;;;;;;28.67;32.60;100092.53;4487593;31;33243;-81
2023/06/03 07:33:54;;;;;;;;;;;;;;;29.95;29.56;100087.25;4495158;31;33791;-83
2023/06/03 07:36:24;;;;;;;;;;;;;;;29.46;31.19;100094.03;4488934;31;33809;-85
2023/06/03 07:39:02;;;;;;;;;;;;;;;30.22;29.68;100094.47;4500654;31;32907;-82
2023/06/03 07:41:38;;;;;;;;;;;;;;;31.87;26.71;100093.25;4490456;31;34678;-83
2023/06/03 07:44:12;;;;;;;;;;;;;;;30.73;28.37;100101.72;4470796;31;33296;-82
2023/06/03 07:46:41;;;;;;;;;;;;;;;30.48;28.94;100099.00;4484561;32;34952;-82
2023/06/03 07:49:12;;;;;;;;;;;;;;;31.58;26.90;100101.50;4465934;32;32664;-82
2023/06/03 07:51:44;;;;;;;;;;;;;;;27.61;32.66;100102.88;4495270;31;34205;-83
2023/06/03 07:54:12;;;;;;;;;;;;;;;25.95;36.20;100106.47;4486320;31;34647;-80
2023/06/03 07:56:39;;;;;;;;;;;;;;;23.89;40.14;100105.59;4486415;31;32187;-84
2023/06/03 07:59:10;;;;;;;;;;;;;;;24.80;38.85;100112.97;4494463;31;33449;-84
2023/06/03 08:01:37;;;;;;;;;;;;;;;22.41;43.13;100115.44;4500865;31;34003;-83
2023/06/03 08:04:19;;;;;;;;;;;;;;;21.96;44.19;100117.94;4487515;31;33892;-77
2023/06/03 08:06:49;;;;;;;;;;;;;;;22.80;43.31;100122.53;4486176;32;34823;-82
2023/06/03 08:09:37;;;;;;;;;;;;;;;22.31;43.62;100111.91;4472219;32;33220;-81
2023/06/03 08:12:05;;;;;;;;;;;;;;;22.46;43.13;100121.63;4498379;31;33345;-82
2023/06/03 08:14:33;;;;;;;;;;;;;;;24.33;39.11;100115.03;4485968;31;34356;-85
2023/06/03 08:17:11;;;;;;;;;;;;;;;26.94;33.35;100111.16;4471125;32;34219;-83
2023/06/03 08:19:39;;;;;;;;;;;;;;;28.36;31.80;100111.91;4496601;31;33278;-85
2023/06/03 08:22:32;;;;;;;;;;;;;;;29.50;29.77;100106.38;4479553;32;34243;-83
2023/06/03 08:25:00;;;;;;;;;;;;;;;29.19;30.39;100117.88;4462271;31;33565;-81
2023/06/03 08:27:29;;;;;;;;;;;;;;;25.76;34.55;100115.53;4492691;31;33896;-83
2023/06/03 08:29:57;;;;;;;;;;;;;;;28.92;30.28;100118.59;4474550;32;33245;-81
2023/06/03 08:32:25;;;;;;;;;;;;;;;29.75;27.82;100111.03;4486478;31;33917;-80
2023/06/03 08:34:52;;;;;;;;;;;;;;;29.23;30.52;100118.69;4464371;31;33403;-84
2023/06/03 08:37:20;;;;;;;;;;;;;;;28.17;32.52;100122.09;4491296;31;34939;-82
2023/06/03 08:39:48;;;;;;;;;;;;;;;28.06;32.43;100117.94;4491348;31;33594;-80
2023/06/03 08:42:18;;;;;;;;;;;;;;;28.64;30.03;100121.91;4497607;31;34048;-74
2023/06/03 08:44:48;;;;;;;;;;;;;;;29.10;29.35;100128.75;4486000;31;33033;-81
2023/06/03 08:47:36;;;;;;;;;;;;;;;28.22;30.39;100117.56;4478149;31;34441;-82
2023/06/03 08:50:05;;;;;;;;;;;;;;;28.24;31.10;100120.19;4465266;31;32979;-81
2023/06/03 08:52:37;;;;;;;;;;;;;;;29.12;29.97;100124.28;4479492;31;33962;-81
2023/06/03 08:55:06;;;;;;;;;;;;;;;30.03;28.21;100127.09;4492982;31;34134;-83
2023/06/03 08:57:45;;;;;;;;;;;;;;;29.86;28.63;100119.56;4473278;31;34382;-82
2023/06/03 09:00:12;;;;;;;;;;;;;;;30.43;28.31;100130.38;4486212;31;33337;-83
2023/06/03 09:02:40;;;;;;;;;;;;;;;31.49;25.33;100122.31;4457343;32;34260;-83
2023/06/03 09:05:07;;;;;;;;;;;;;;;27.03;32.89;100128.75;4487715;31;34980;-83
2023/06/03 09:07:34;;;;;;;;;;;;;;;29.08;29.61;100125.25;4464483;31;34819;-81
2023/06/03 09:10:03;;;;;;;;;;;;;;;30.65;28.46;100120.72;4468974;31;34079;-84
2023/06/03 09:12:30;;;;;;;;;;;;;;;27.13;34.08;100127.69;4483712;31;32735;-82
2023/06/03 09:14:58;;;;;;;;;;;;;;;26.36;37.22;100128.91;4462770;32;34438;-85
2023/06/03 09:17:28;;;;;;;;;;;;;;;28.74;32.14;100123.47;4456318;31;34751;-83
2023/06/03 09:19:59;;;;;;;;;;;;;;;27.53;34.19;100131.44;4468266;32;32935;-82
2023/06/03 09:22:27;;;;;;;;;;;;;;;28.84;30.54;100132.13;4491462;31;33901;-81
2023/06/03 09:24:58;;;;;;;;;;;;;;;29.40;29.99;100136.91;4468202;32;33952;-85
2023/06/03 09:27:25;;;;;;;;;;;;;;;29.82;29.42;100133.06;4452707;32;32554;-83
2023/06/03 09:29:56;;;;;;;;;;;;;;;29.71;30.03;100136.00;4472875;32;33869;-85
2023/06/03 09:32:36;;;;;;;;;;;;;;;30.45;28.01;100137.41;4457146;31;36020;-83
2023/06/03 09:35:07;;;;;;;;;;;;;;;30.61;27.64;100132.44;4482079;31;33977;-82
2023/06/03 09:37:36;;;;;;;;;;;;;;;29.63;29.67;100130.03;4482788;31;35094;-80
2023/06/03 09:40:09;;;;;;;;;;;;;;;29.27;29.87;100135.47;4483373;32;33302;-83
2023/06/03 09:42:42;;;;;;;;;;;;;;;27.74;31.68;100135.41;4473869;31;34414;-81
2023/06/03 09:45:23;;;;;;;;;;;;;;;28.47;29.97;100137.41;4482428;31;34944;-83
2023/06/03 09:47:50;;;;;;;;;;;;;;;28.31;30.76;100137.75;4488120;31;35541;-81
2023/06/03 09:50:18;;;;;;;;;;;;;;;28.56;30.63;100131.91;4477860;31;31109;-81
2023/06/03 09:52:46;;;;;;;;;;;;;;;28.91;29.40;100138.16;4467750;32;34074;-83
2023/06/03 09:55:14;;;;;;;;;;;;;;;29.05;29.32;100130.66;4488460;31;32381;-83
2023/06/03 09:57:42;;;;;;;;;;;;;;;26.41;35.58;100132.37;4478396;31;34884;-81
2023/06/03 10:00:12;;;;;;;;;;;;;;;25.25;35.85;100135.56;4470548;32;33024;-83
2023/06/03 10:02:42;;;;;;;;;;;;;;;26.96;35.08;100124.44;4473392;31;33154;-83
2023/06/03 10:05:26;;;;;;;;;;;;;;;25.47;36.31;100135.31;4484107;31;33623;-81
2023/06/03 10:07:54;;;;;;;;;;;;;;;24.38;37.54;100129.16;4471710;31;32104;-82
2023/06/03 10:10:22;;;;;;;;;;;;;;;25.76;37.17;100120.84;4471120;32;32422;-82
2023/06/03 10:12:50;;;;;;;;;;;;;;;27.79;32.83;100121.09;4475663;31;33727;-81
2023/06/03 10:15:39;;;;;;;;;;;;;;;29.28;30.00;100113.22;4483584;31;33854;-82
2023/06/03 10:18:06;;;;;;;;;;;;;;;28.95;32.87;100126.50;4496743;31;33534;-83
2023/06/03 10:20:35;;;;;;;;;;;;;;;29.70;29.96;100119.13;4471094;32;34214;-84
2023/06/03 10:23:03;;;;;;;;;;;;;;;27.48;31.74;100123.50;4483146;32;34358;-83
2023/06/03 10:25:39;;;;;;;;;;;;;;;25.57;34.47;100120.19;4454780;32;34643;-82
2023/06/03 10:28:07;;;;;;;;;;;;;;;27.34;31.53;100125.56;4481324;31;33985;-80
2023/06/03 10:30:34;;;;;;;;;;;;;;;29.31;28.39;100121.13;4482360;32;34482;-83
2023/06/03 10:33:03;;;;;;;;;;;;;;;28.00;29.58;100122.47;4484619;32;33977;-84
2023/06/03 10:35:31;;;;;;;;;;;;;;;29.39;28.65;100121.78;4485544;32;34995;-83
2023/06/03 10:38:03;;;;;;;;;;;;;;;27.87;31.18;100123.59;4460356;32;32932;-83
2023/06/03 10:40:30;;;;;;;;;;;;;;;24.85;37.16;100137.66;4485625;32;33418;-82
2023/06/03 10:42:58;;;;;;;;;;;;;;;24.92;36.47;100134.06;4471255;32;35036;-85
2023/06/03 10:45:26;;;;;;;;;;;;;;;24.67;37.64;100128.97;4481216;31;34728;-85
2023/06/03 10:47:56;;;;;;;;;;;;;;;24.59;38.82;100124.59;4473829;31;34274;-85
2023/06/03 10:50:43;;;;;;;;;;;;;;;24.80;36.62;100119.16;4483534;32;33466;-83
2023/06/03 10:53:10;;;;;;;;;;;;;;;25.09;36.58;100128.59;4485420;32;34961;-83
2023/06/03 10:56:16;;;;;;;;;;;;;;;25.79;37.10;100118.16;4485494;32;33784;-83
2023/06/03 10:58:43;;;;;;;;;;;;;;;24.73;37.92;100114.78;4441640;32;34100;-82
2023/06/03 11:01:10;;;;;;;;;;;;;;;24.81;37.71;100118.25;4439061;32;32907;-81
2023/06/03 11:03:53;;;;;;;5.70;2.87;;;;;;;27.21;33.75;100112.47;4467418;31;34216;-82
2023/06/03 11:06:25;;;;;;;;;;;;;;;28.93;30.49;100115.00;4485162;32;33564;-80
2023/06/03 11:08:57;;;;;;;;;;;;;;;27.58;32.34;100114.47;4485413;32;34207;-83
2023/06/03 11:11:44;;;;;;;;;;;;;;;28.77;29.82;100126.03;4485223;32;33235;-82
2023/06/03 11:14:11;;;;;;;;;;;;;;;30.24;27.30;100120.22;4473673;31;34283;-84
2023/06/03 11:16:54;;;;;;;;;;;;;;;29.29;27.64;100114.97;4495758;31;34248;-84
2023/06/03 11:19:31;;;;;;;;;;;;;;;29.67;27.80;100113.91;4485356;32;34348;-82
2023/06/03 11:21:59;;;;;;;;;;;;;;;30.04;27.88;100101.25;4485576;32;34228;-83
2023/06/03 11:24:38;;;;;;;;;;;;;;;30.20;27.55;100107.88;4485428;32;33946;-82
2023/06/03 11:27:12;;;;;;;;;;;;;;;28.94;28.68;100111.41;4478929;32;34649;-81
2023/06/03 11:29:46;;;;;;;;;;;;;;;29.26;29.07;100101.69;4497080;31;34833;-85
2023/06/03 11:32:13;;;;;;;;;;;;;;;30.50;27.45;100099.81;4458472;32;31531;-84
2023/06/03 11:34:41;;;;;;;;;;;;;;;31.44;26.16;100100.16;4476160;31;33776;-83
2023/06/03 11:37:08;;;;;;;;;;;;;;;31.06;26.12;100104.22;4492554;31;34530;-82
2023/06/03 11:39:54;;;;;;;;;;;;;;;31.75;25.48;100109.75;4470766;32;34170;-83
2023/06/03 11:42:21;;;;;;;;;;;;;;;32.20;25.41;100106.28;4485487;32;33176;-81
2023/06/03 11:44:49;;;;;;;;;;;;;;;31.55;24.88;100106.03;4484956;32;34934;-82
2023/06/03 11:47:16;;;;;;;;;;;;;;;30.24;26.11;100101.50;4485289;32;34145;-82
2023/06/03 11:49:43;;;;;;;;;;;;;;;29.76;26.74;100094.94;4484781;32;34049;-83
2023/06/03 11:52:11;;;;;;;;;;;;;;;29.70;26.88;100087.09;4470624;32;32514;-83
2023/06/03 11:54:43;;;;;;;;;;;;;;;29.15;26.97;100094.87;4484849;32;35185;-82
2023/06/03 11:57:13;;;;;;;;;;;;;;;30.74;25.16;100087.47;4470762;32;33411;-81
2023/06/03 11:59:41;;;;;;;;;;;;;;;31.17;24.77;100084.16;4496969;31;34036;-83
2023/06/03 12:02:09;;;;;;;;;;;;;;;30.64;25.40;100086.88;4485771;31;33531;-85
2023/06/03 12:04:37;;;;;;;;;;;;;;;28.78;29.51;100085.16;4484961;32;34895;-83
2023/06/03 12:07:11;;;;;;;;;;;;;;;27.69;29.23;100092.06;4484651;32;34128;-81
2023/06/03 12:09:39;;;;;;;;;;;;;;;28.98;28.15;100091.75;4484916;32;34813;-82
2023/06/03 12:12:07;;;;;;;;;;;;;;;29.63;26.17;100084.66;4484793;32;34099;-84
2023/06/03 12:14:38;;;;;;;;;;;;;;;29.36;27.15;100081.84;4470191;32;34209;-84
2023/06/03 12:17:07;;;;;;;;;;;;;;;29.41;27.11;100075.47;4478838;31;33942;-83
2023/06/03 12:19:38;;;;;;;;;;;;;;;29.02;27.70;100077.41;4489686;31;34076;-82
2023/06/03 12:22:06;;;;;;;;;;;;;;;28.83;28.61;100083.22;4472390;31;33368;-83
2023/06/03 12:24:33;;;;;;;;;;;;;;;29.40;27.85;100080.87;4495930;31;35166;-84
2023/06/03 12:27:11;;;;;;;;;;;;;;;30.04;26.17;100077.22;4484700;32;34455;-81
2023/06/03 12:29:46;;;;;;;;;;;;;;;30.02;26.68;100076.38;4474901;32;35016;-83
2023/06/03 12:32:13;;;;;;;;;;;;;;;28.31;29.10;100079.16;4483343;31;33584;-81
2023/06/03 12:34:41;;;;;;;;;;;;;;;29.34;26.72;100073.00;4470532;32;34121;-84
2023/06/03 12:37:08;;;;;;;;;;;;;;;29.76;26.52;100070.91;4478741;31;34793;-85
2023/06/03 12:39:47;;;;;;;;;;;;;;;29.52;27.44;100072.50;4489049;31;34805;-82
2023/06/03 12:42:19;;;;;;;;;;;;;;;29.71;27.03;100066.59;4470581;32;33751;-82
2023/06/03 12:44:46;;;;;;;;;;;;;;;29.50;26.87;100068.13;4484489;32;34871;-84
2023/06/03 12:47:14;;;;;;;;;;;;;;;29.57;26.14;100065.25;4484199;32;33752;-84
2023/06/03 12:49:43;;;;;;;;;;;;;;;29.82;25.68;100060.97;4484450;32;34861;-81